Terminal Aerodrome Forecast
Issued by NWS

Home | Current Version | Previous Version | Graphics & Text | Print | Product List | Glossary On
Versions: 1 2 3 4 5 6 7 8 9 10 11 12 13 14 15 16 17 18 19 20 21 22
000
FTUS42 KMHX 010553
TAFOAJ
TAF
KOAJ 010553Z 0106/0206 VRB02KT 6SM BR VCSH SCT005 BKN090
     FM011300 34005KT P6SM VCSH SCT007 SCT015 BKN035
     FM011700 35013G20KT P6SM SHRA SCT010 BKN020
     FM020000 34010KT P6SM SCT015 BKN025
      AMD LTD TO CLD VIS AND WIND=

USA.gov is the U.S. government's official web portal to all federal, state and local government web resources and services.